Time;durP1;ratioP1;P1;durP2;ratioP2;P2;SDS_P1;SDS_P2;PMS_P1;PMS_P2;Temp;Humidity;BMP_temperature;BMP_pressure;BME280_temperature;BME280_humidity;BME280_pressure;Samples;Min_cycle;Max_cycle;Signal;HPM_P1;HPM_P2
2024/01/27 00:01:56;;;;;;;8.70;1.95;;;5.10;99.90;;;4.88;100.00;102879.13;5211354;28;20068;-87
2024/01/27 00:04:28;;;;;;;3.55;1.83;;;5.00;99.90;;;4.87;100.00;102885.06;5204587;28;20054;-89
2024/01/27 00:07:02;;;;;;;6.53;1.52;;;4.90;99.90;;;4.86;100.00;102891.94;5226219;28;20060;-88
2024/01/27 00:09:34;;;;;;;6.32;1.80;;;5.00;99.90;;;4.86;100.00;102888.44;5206118;28;20519;-85
2024/01/27 00:12:08;;;;;;;3.17;1.27;;;5.00;99.90;;;4.82;100.00;102886.31;5215659;28;20139;-87
2024/01/27 00:14:40;;;;;;;7.32;1.70;;;5.00;99.90;;;4.77;100.00;102890.19;5207086;28;20041;-88
2024/01/27 00:17:12;;;;;;;7.13;1.25;;;4.90;99.90;;;4.75;100.00;102882.28;5211304;28;20045;-87
2024/01/27 00:19:44;;;;;;;5.00;1.58;;;4.90;99.90;;;4.72;100.00;102886.28;5204257;28;20054;-87
2024/01/27 00:22:18;;;;;;;10.77;1.70;;;4.90;99.90;;;4.72;100.00;102881.09;5197604;28;20049;-88
2024/01/27 00:24:50;;;;;;;7.78;1.65;;;4.90;99.90;;;4.71;100.00;102881.88;5224164;28;20525;-86
2024/01/27 00:27:22;;;;;;;5.30;2.00;;;4.80;99.90;;;4.69;100.00;102880.81;5198610;28;20526;-89
2024/01/27 00:29:54;;;;;;;6.68;1.30;;;4.80;99.90;;;4.63;100.00;102884.69;5211586;28;20050;-87
2024/01/27 00:32:26;;;;;;;1.25;1.15;;;4.80;99.90;;;4.63;100.00;102887.25;5229679;28;20140;-87
2024/01/27 00:34:58;;;;;;;1.80;0.70;;;4.80;99.90;;;4.59;100.00;102885.16;5210837;28;20037;-88
2024/01/27 00:37:31;;;;;;;8.23;0.82;;;5.00;99.90;;;4.53;100.00;102892.34;5197019;28;20053;-87
2024/01/27 00:40:05;;;;;;;5.13;1.10;;;4.70;99.90;;;4.53;100.00;102901.75;5230869;28;20045;-85
2024/01/27 00:42:37;;;;;;;11.75;1.08;;;4.70;99.90;;;4.49;100.00;102897.97;5220986;28;20056;-85
2024/01/27 00:45:10;;;;;;;1.23;1.13;;;4.70;99.90;;;4.45;100.00;102888.13;5212143;28;20427;-86
2024/01/27 00:47:42;;;;;;;2.92;1.08;;;4.60;99.90;;;4.46;100.00;102892.53;5224293;28;20413;-86
2024/01/27 00:50:14;;;;;;;3.35;1.25;;;4.60;99.90;;;4.40;100.00;102899.72;5209661;28;20045;-84
2024/01/27 00:52:47;;;;;;;0.95;0.68;;;4.60;99.90;;;4.30;100.00;102897.97;5225544;28;20050;-87
2024/01/27 00:55:19;;;;;;;8.25;1.20;;;4.70;99.90;;;4.23;100.00;102903.28;5220552;28;20045;-87
2024/01/27 00:57:53;;;;;;;1.42;0.60;;;4.50;99.90;;;4.17;100.00;102906.97;5213030;28;20042;-86
2024/01/27 01:00:25;;;;;;;4.35;1.15;;;4.60;99.90;;;4.11;100.00;102908.97;5232013;28;20051;-88
2024/01/27 01:02:57;;;;;;;2.45;0.98;;;4.30;99.90;;;4.03;100.00;102909.16;5227139;28;20048;-87
2024/01/27 01:05:29;;;;;;;3.63;0.73;;;4.20;99.90;;;3.97;100.00;102913.75;5208952;28;20049;-86
2024/01/27 01:08:03;;;;;;;2.65;0.88;;;4.10;99.90;;;3.86;100.00;102898.03;5211204;28;20037;-88
2024/01/27 01:10:35;;;;;;;4.22;0.88;;;4.10;99.90;;;3.84;100.00;102910.75;5216518;28;20052;-85
2024/01/27 01:13:07;;;;;;;2.00;1.05;;;4.10;99.90;;;3.81;100.00;102915.63;5231563;28;20049;-87
2024/01/27 01:15:40;;;;;;;4.28;1.38;;;4.00;99.90;;;3.75;100.00;102915.97;5224828;28;20072;-86
2024/01/27 01:18:12;;;;;;;6.05;1.30;;;4.00;99.90;;;3.70;100.00;102918.84;5227264;28;20041;-86
2024/01/27 01:20:44;;;;;;;2.20;0.68;;;3.90;99.90;;;3.65;100.00;102926.19;5206227;28;20076;-86
2024/01/27 01:23:18;;;;;;;1.17;1.00;;;3.90;99.90;;;3.61;100.00;102915.41;5227379;28;20045;-86
2024/01/27 01:25:50;;;;;;;2.78;1.27;;;3.80;99.90;;;3.62;100.00;102917.22;5203346;28;20051;-87
2024/01/27 01:28:22;;;;;;;3.22;1.13;;;3.60;99.90;;;3.60;100.00;102922.25;5218538;28;20041;-87
2024/01/27 01:30:54;;;;;;;3.42;0.98;;;4.10;99.90;;;3.56;100.00;102911.47;5201966;28;21514;-87
2024/01/27 01:33:26;;;;;;;1.13;0.55;;;3.80;99.90;;;3.52;100.00;102921.50;5231831;28;20051;-86
2024/01/27 01:35:58;;;;;;;1.40;0.82;;;3.70;99.90;;;3.49;100.00;102921.19;5229801;28;20070;-86
2024/01/27 01:38:32;;;;;;;1.27;0.85;;;3.60;99.90;;;3.47;100.00;102911.50;5228740;28;20071;-87
2024/01/27 01:41:04;;;;;;;2.78;0.98;;;3.70;99.90;;;3.43;100.00;102910.28;5233773;28;20036;-87
2024/01/27 01:43:36;;;;;;;4.65;1.02;;;3.70;99.90;;;3.40;100.00;102915.16;5216326;28;20112;-87
2024/01/27 01:46:09;;;;;;;2.47;0.93;;;3.70;99.90;;;3.35;100.00;102910.31;5231574;28;20041;-85
2024/01/27 01:48:41;;;;;;;4.32;0.80;;;3.60;99.90;;;3.30;100.00;102921.84;5221506;28;20052;-86
2024/01/27 01:51:14;;;;;;;6.85;1.08;;;3.60;99.90;;;3.23;100.00;102920.31;5233367;28;20052;-87
2024/01/27 01:53:50;;;;;;;5.00;1.38;;;3.50;99.90;;;3.16;100.00;102928.22;5234131;28;20053;-86
2024/01/27 01:56:22;;;;;;;0.65;0.65;;;3.30;99.90;;;3.11;100.00;102922.59;5236004;28;20109;-86
2024/01/27 01:58:55;;;;;;;5.07;0.63;;;3.40;99.90;;;3.06;100.00;102922.91;5254903;28;20048;-86
2024/01/27 02:01:27;;;;;;;2.92;1.33;;;3.30;99.90;;;3.04;100.00;102927.00;5254248;28;20045;-86
2024/01/27 02:03:59;;;;;;;2.63;0.90;;;3.30;99.90;;;3.01;100.00;102924.16;5239461;28;20055;-85
2024/01/27 02:06:32;;;;;;;3.97;1.13;;;3.80;99.90;;;2.95;100.00;102922.78;5245004;28;20498;-86
2024/01/27 02:09:06;;;;;;;0.65;0.65;;;3.20;99.90;;;2.92;100.00;102930.19;5228238;28;20047;-87
2024/01/27 02:11:38;;;;;;;4.05;0.65;;;3.00;99.90;;;2.88;100.00;102938.38;5234014;28;20584;-86
2024/01/27 02:14:10;;;;;;;0.60;0.50;;;3.20;99.90;;;2.86;100.00;102928.66;5248003;28;20053;-86
2024/01/27 02:16:43;;;;;;;5.43;1.15;;;3.10;99.90;;;2.84;100.00;102928.53;5236036;28;20055;-85
2024/01/27 02:19:15;;;;;;;0.85;0.75;;;3.10;99.90;;;2.81;100.00;102929.91;5238945;28;20101;-86
2024/01/27 02:21:47;;;;;;;11.38;1.25;;;3.10;99.90;;;2.75;100.00;102931.84;5250834;28;20059;-89
2024/01/27 02:24:20;;;;;;;2.65;1.10;;;3.00;99.90;;;2.73;100.00;102926.53;5249360;28;20044;-87
2024/01/27 02:26:52;;;;;;;1.27;0.68;;;2.90;99.90;;;2.70;100.00;102919.41;5242077;28;20056;-87
2024/01/27 02:29:27;;;;;;;0.93;0.80;;;3.60;99.90;;;2.71;100.00;102934.09;5239248;28;20036;-85
2024/01/27 02:31:59;;;;;;;6.10;0.70;;;3.00;99.90;;;2.70;100.00;102933.97;5234626;28;20098;-86
2024/01/27 02:34:31;;;;;;;3.50;1.10;;;3.00;99.90;;;2.62;100.00;102928.06;5232405;28;20048;-86
2024/01/27 02:37:05;;;;;;;3.40;0.75;;;2.90;99.90;;;2.67;100.00;102936.22;5245118;28;20048;-86
2024/01/27 02:39:40;;;;;;;2.15;1.00;;;2.90;99.90;;;2.67;100.00;102929.44;5252175;28;20037;-85
2024/01/27 02:42:12;;;;;;;0.73;0.47;;;3.10;99.90;;;2.63;100.00;102934.09;5229826;28;20336;-85
2024/01/27 02:44:44;;;;;;;3.95;0.93;;;2.90;99.90;;;2.56;100.00;102937.72;5231455;28;20426;-86
2024/01/27 02:47:16;;;;;;;2.65;0.68;;;2.80;99.90;;;2.53;100.00;102936.50;5237310;28;20037;-86
2024/01/27 02:49:48;;;;;;;1.65;1.10;;;3.00;99.90;;;2.49;100.00;102935.28;5248768;28;20044;-86
2024/01/27 02:52:20;;;;;;;4.35;1.30;;;2.90;99.90;;;2.41;100.00;102931.94;5234884;28;20049;-86
2024/01/27 02:54:54;;;;;;;0.95;0.80;;;2.90;99.90;;;2.37;100.00;102937.53;5244916;28;20429;-85
2024/01/27 02:57:26;;;;;;;2.10;1.23;;;2.80;99.90;;;2.35;100.00;102936.47;5248379;28;20051;-86
2024/01/27 02:59:58;;;;;;;3.10;0.65;;;2.80;99.90;;;2.30;100.00;102927.38;5233745;28;20040;-85
2024/01/27 03:02:30;;;;;;;5.05;0.93;;;2.80;99.90;;;2.34;100.00;102937.19;5231152;28;20037;-85
2024/01/27 03:05:02;;;;;;;1.58;0.68;;;2.80;99.90;;;2.35;100.00;102944.19;5251324;28;20040;-86
2024/01/27 03:07:35;;;;;;;2.65;1.92;;;2.80;99.90;;;2.32;100.00;102942.97;5261574;28;20051;-85
2024/01/27 03:10:10;;;;;;;8.30;2.05;;;2.60;99.90;;;2.25;100.00;102935.38;5257342;28;20548;-85
2024/01/27 03:12:42;;;;;;;2.58;0.85;;;2.60;99.90;;;2.22;100.00;102935.03;5238651;28;20048;-85
2024/01/27 03:15:15;;;;;;;1.67;0.57;;;2.60;99.90;;;2.18;100.00;102938.97;5239656;28;20040;-86
2024/01/27 03:17:47;;;;;;;2.08;0.77;;;2.60;99.90;;;2.14;100.00;102930.03;5243024;28;20052;-87
2024/01/27 03:20:19;;;;;;;0.55;0.55;;;2.50;99.90;;;2.14;100.00;102948.03;5247960;28;20054;-86
2024/01/27 03:22:51;;;;;;;2.80;0.65;;;2.50;99.90;;;2.14;100.00;102939.41;5242445;28;20056;-86
2024/01/27 03:25:25;;;;;;;9.80;1.77;;;2.50;99.90;;;2.10;100.00;102948.50;5247267;28;20276;-87
2024/01/27 03:27:57;;;;;;;0.50;0.50;;;2.40;99.90;;;2.00;100.00;102953.44;5257994;28;20070;-86
2024/01/27 03:30:29;;;;;;;1.25;0.55;;;2.40;99.90;;;1.99;100.00;102941.31;5251325;28;20048;-86
2024/01/27 03:33:01;;;;;;;8.48;0.82;;;2.30;99.90;;;2.03;100.00;102956.34;5245053;28;20044;-86
2024/01/27 03:35:33;;;;;;;1.90;0.47;;;2.40;99.90;;;2.01;100.00;102950.09;5246033;28;20048;-87
2024/01/27 03:38:06;;;;;;;2.22;0.90;;;2.30;99.90;;;1.99;100.00;102955.84;5254519;28;20051;-86
2024/01/27 03:40:40;;;;;;;2.45;1.40;;;2.30;99.90;;;1.95;100.00;102956.28;5249088;28;20048;-87
2024/01/27 03:43:12;;;;;;;2.17;1.35;;;2.30;99.90;;;1.93;100.00;102957.78;5249248;28;20526;-87
2024/01/27 03:45:45;;;;;;;5.50;1.15;;;2.30;99.90;;;1.90;100.00;102956.72;5246219;28;20048;-86
2024/01/27 03:48:17;;;;;;;2.22;0.88;;;2.30;99.90;;;1.88;100.00;102950.50;5254421;28;20032;-86
2024/01/27 03:50:49;;;;;;;5.28;0.40;;;2.20;99.90;;;1.85;100.00;102959.56;5253378;28;20135;-86
2024/01/27 03:53:21;;;;;;;3.25;0.73;;;2.20;99.90;;;1.82;100.00;102957.56;5251043;28;20059;-87
2024/01/27 03:55:54;;;;;;;1.30;0.95;;;2.20;99.90;;;1.78;100.00;102952.88;5242991;28;20056;-86
2024/01/27 03:58:26;;;;;;;5.50;0.82;;;2.10;99.90;;;1.77;100.00;102952.72;5243073;28;20044;-86
2024/01/27 04:00:59;;;;;;;0.93;0.70;;;2.20;99.90;;;1.77;100.00;102961.34;5240957;28;20514;-85
2024/01/27 04:03:31;;;;;;;0.88;0.80;;;2.10;99.90;;;1.77;100.00;102952.72;5266648;28;20066;-86
2024/01/27 04:06:03;;;;;;;7.95;1.75;;;2.10;99.90;;;1.80;100.00;102959.09;5245934;28;20058;-87
2024/01/27 04:08:36;;;;;;;1.05;0.65;;;2.10;99.90;;;1.78;100.00;102955.47;5238831;28;20048;-86
2024/01/27 04:11:09;;;;;;;4.32;0.57;;;2.10;99.90;;;1.80;100.00;102969.38;5255340;28;20039;-86
2024/01/27 04:13:42;;;;;;;0.52;0.52;;;2.10;99.90;;;1.81;100.00;102967.72;5234487;28;20056;-86
2024/01/27 04:16:14;;;;;;;3.60;0.82;;;2.10;99.90;;;1.82;100.00;102967.84;5255753;28;20049;-86
2024/01/27 04:18:46;;;;;;;2.38;0.60;;;2.10;99.90;;;1.82;100.00;102970.44;5235678;28;20045;-86
2024/01/27 04:21:18;;;;;;;1.25;0.88;;;2.20;99.90;;;1.82;100.00;102972.09;5265158;28;20041;-86
2024/01/27 04:23:50;;;;;;;1.85;1.15;;;2.20;99.90;;;1.77;100.00;102968.16;5258945;28;20052;-87
2024/01/27 04:26:23;;;;;;;1.15;0.38;;;2.10;99.90;;;1.77;100.00;102979.34;5241391;28;20050;-88
2024/01/27 04:28:55;;;;;;;3.75;1.17;;;2.10;99.90;;;1.75;100.00;102982.50;5247951;28;20071;-86
2024/01/27 04:31:27;;;;;;;0.50;0.40;;;2.10;99.90;;;1.72;100.00;102979.63;5237546;28;20052;-87
2024/01/27 04:34:00;;;;;;;2.67;1.33;;;2.10;99.90;;;1.63;100.00;102980.47;5239926;28;20058;-85
2024/01/27 04:36:32;;;;;;;0.68;0.68;;;2.00;99.90;;;1.57;100.00;102979.84;5239196;28;20945;-86
2024/01/27 04:39:05;;;;;;;0.88;0.77;;;2.00;99.90;;;1.59;100.00;103000.56;5233162;28;20036;-86
2024/01/27 04:41:44;;;;;;;0.70;0.55;;;2.00;99.90;;;1.57;100.00;102994.34;5252277;28;20037;-85
2024/01/27 04:44:16;;;;;;;2.38;0.65;;;1.90;99.90;;;1.55;100.00;102991.59;5258965;28;20049;-85
2024/01/27 04:46:48;;;;;;;4.32;0.80;;;1.90;99.90;;;1.53;100.00;102998.25;5253508;28;20071;-84
2024/01/27 04:49:20;;;;;;;1.17;0.50;;;1.90;99.90;;;1.51;100.00;102993.69;5239393;28;20044;-87
2024/01/27 04:51:52;;;;;;;1.17;0.90;;;1.90;99.90;;;1.49;100.00;103000.31;5242382;28;20071;-86
2024/01/27 04:54:24;;;;;;;0.75;0.75;;;1.90;99.90;;;1.46;100.00;102994.88;5240911;28;20103;-85
2024/01/27 04:56:58;;;;;;;0.80;0.80;;;1.80;99.90;;;1.46;100.00;102987.16;5252970;28;20124;-86
2024/01/27 04:59:30;;;;;;;1.13;1.00;;;1.80;99.90;;;1.47;100.00;102986.41;5246179;28;20047;-86
2024/01/27 05:02:02;;;;;;;2.88;0.43;;;1.80;99.90;;;1.45;100.00;102987.91;5245452;28;20060;-86
2024/01/27 05:04:34;;;;;;;1.50;1.10;;;1.80;99.90;;;1.44;100.00;103001.53;5245784;28;20517;-86
2024/01/27 05:07:06;;;;;;;0.35;0.35;;;1.80;99.90;;;1.41;100.00;102985.75;5223837;28;20044;-86
2024/01/27 05:09:38;;;;;;;1.23;0.77;;;1.80;99.90;;;1.38;100.00;102991.50;5235182;28;20048;-85
2024/01/27 05:12:12;;;;;;;2.58;1.35;;;1.80;99.90;;;1.40;100.00;102994.22;5271159;28;20035;-88
2024/01/27 05:14:45;;;;;;;2.67;0.80;;;1.80;99.90;;;1.33;100.00;102978.13;5259522;28;20040;-86
2024/01/27 05:17:17;;;;;;;3.05;1.00;;;1.70;99.90;;;1.33;100.00;102993.56;5277512;28;20024;-89
2024/01/27 05:19:51;;;;;;;2.08;0.55;;;1.70;99.90;;;1.31;100.00;102982.22;5260821;28;20043;-88
2024/01/27 05:22:23;;;;;;;3.17;1.17;;;1.70;99.90;;;1.23;100.00;102970.19;5255871;28;20020;-87
2024/01/27 05:24:55;;;;;;;1.13;0.75;;;1.70;99.90;;;1.27;100.00;102985.19;5262471;28;20066;-87
2024/01/27 05:27:28;;;;;;;3.25;0.90;;;1.70;99.90;;;1.26;100.00;102988.53;5258077;28;20040;-86
2024/01/27 05:30:00;;;;;;;1.48;0.73;;;1.60;99.90;;;1.23;100.00;102979.56;5266535;28;20402;-86
2024/01/27 05:32:33;;;;;;;2.85;0.70;;;1.60;99.90;;;1.22;100.00;102978.66;5253723;28;20151;-85
2024/01/27 05:35:06;;;;;;;3.38;1.50;;;1.60;99.90;;;1.23;100.00;102979.56;5237911;28;20051;-85
2024/01/27 05:37:39;;;;;;;1.45;1.25;;;1.60;99.90;;;1.19;100.00;102977.44;5256127;28;20045;-86
2024/01/27 05:40:12;;;;;;;2.58;0.73;;;1.60;99.90;;;1.22;100.00;102986.34;5240581;28;20112;-86
2024/01/27 05:42:45;;;;;;;1.17;0.77;;;1.60;99.90;;;1.15;100.00;102971.03;5251897;28;20051;-86
2024/01/27 05:45:18;;;;;;;3.53;0.95;;;1.60;99.90;;;1.19;100.00;102986.03;5257424;28;20491;-86
2024/01/27 05:47:50;;;;;;;0.70;0.70;;;1.60;99.90;;;1.18;100.00;102986.81;5260257;28;20064;-86
2024/01/27 05:50:22;;;;;;;1.38;1.02;;;1.60;99.90;;;1.20;100.00;102987.88;5263341;28;20074;-86
2024/01/27 05:52:54;;;;;;;0.45;0.45;;;1.60;99.90;;;1.18;100.00;102986.81;5259318;28;20052;-87
2024/01/27 05:55:27;;;;;;;1.83;1.73;;;1.60;99.90;;;1.10;100.00;102977.34;5272071;28;20048;-86
2024/01/27 05:58:00;;;;;;;0.50;0.50;;;1.60;99.90;;;1.10;100.00;102977.34;5266723;28;20421;-86
2024/01/27 06:00:32;;;;;;;3.50;1.13;;;1.50;99.90;;;1.15;100.00;102991.59;5236821;28;20057;-86
2024/01/27 06:03:04;;;;;;;3.17;0.63;;;2.00;99.90;;;1.11;100.00;102979.19;5273223;28;20055;-87
2024/01/27 06:05:37;;;;;;;1.50;0.98;;;1.50;99.90;;;1.15;100.00;102986.44;5247975;28;20383;-87
2024/01/27 06:08:09;;;;;;;7.75;1.17;;;1.90;99.90;;;1.17;100.00;102982.38;5260062;28;20059;-86
2024/01/27 06:10:41;;;;;;;2.45;0.73;;;1.60;99.90;;;1.20;100.00;102979.25;5252250;28;20048;-87
2024/01/27 06:13:16;;;;;;;4.30;1.67;;;2.90;99.90;;;1.18;100.00;102981.66;5240234;28;20513;-86
2024/01/27 06:15:48;;;;;;;5.05;0.93;;;1.50;99.90;;;1.21;100.00;102981.97;5243718;28;20060;-87
2024/01/27 06:18:20;;;;;;;0.88;0.88;;;1.60;99.90;;;1.19;100.00;102980.00;5259802;28;20044;-86
2024/01/27 06:20:52;;;;;;;4.57;1.50;;;1.60;99.90;;;1.14;100.00;102983.72;5250540;28;20052;-86
2024/01/27 06:23:24;;;;;;;3.55;1.05;;;1.60;99.90;;;1.12;100.00;102986.13;5258177;28;20070;-88
2024/01/27 06:25:56;;;;;;;2.63;0.93;;;1.60;99.90;;;1.07;100.00;102983.06;5264667;28;20040;-86
2024/01/27 06:28:29;;;;;;;2.33;1.23;;;1.40;99.90;;;1.08;100.00;102983.97;5238893;28;20082;-86
2024/01/27 06:31:02;;;;;;;3.50;2.63;;;1.50;99.90;;;1.10;100.00;102985.03;5245676;28;20046;-85
2024/01/27 06:33:35;;;;;;;5.32;2.53;;;1.50;99.90;;;1.19;100.00;102988.63;5263050;28;20040;-86
2024/01/27 06:36:09;;;;;;;5.20;3.10;;;1.50;99.90;;;1.21;100.00;102991.34;5251968;28;20061;-85
2024/01/27 06:38:41;;;;;;;3.88;2.40;;;1.60;99.90;;;1.24;100.00;103000.31;5255796;28;20044;-86
2024/01/27 06:41:13;;;;;;;6.38;3.20;;;1.60;99.90;;;1.25;100.00;103004.69;5259645;28;20053;-86
2024/01/27 06:43:46;;;;;;;7.60;3.33;;;1.60;99.90;;;1.28;100.00;102997.28;5269631;28;20531;-85
2024/01/27 06:46:18;;;;;;;5.20;3.03;;;1.60;99.90;;;1.27;100.00;102997.13;5263585;28;20052;-86
2024/01/27 06:48:50;;;;;;;6.22;2.50;;;1.70;99.90;;;1.34;100.00;102999.59;5246444;28;20055;-85
2024/01/27 06:51:23;;;;;;;3.53;1.00;;;1.60;99.90;;;1.36;100.00;103004.16;5247746;28;20055;-86
2024/01/27 06:53:55;;;;;;;2.88;0.85;;;1.70;99.90;;;1.40;100.00;103014.78;5264734;28;20066;-86
2024/01/27 06:56:27;;;;;;;3.05;1.70;;;1.70;99.90;;;1.41;100.00;103021.72;5232556;28;20048;-86
2024/01/27 06:59:01;;;;;;;6.82;1.80;;;1.70;99.90;;;1.38;100.00;103029.13;5245856;28;20044;-87
2024/01/27 07:01:33;;;;;;;1.77;1.20;;;1.70;99.90;;;1.34;100.00;103018.50;5235560;28;20052;-86
2024/01/27 07:04:05;;;;;;;12.23;1.80;;;1.70;99.90;;;1.44;100.00;103027.22;5237758;28;20040;-86
2024/01/27 07:06:37;;;;;;;2.83;2.30;;;1.70;99.90;;;1.52;100.00;103034.09;5243780;28;20051;-85
2024/01/27 07:09:10;;;;;;;1.23;1.00;;;1.80;99.90;;;1.56;100.00;103031.06;5236581;28;20053;-85
2024/01/27 07:11:42;;;;;;;4.85;2.05;;;1.90;99.90;;;1.60;100.00;103040.94;5236083;28;20040;-85
2024/01/27 07:14:16;;;;;;;2.45;1.55;;;1.90;99.90;;;1.69;100.00;103034.19;5249551;28;20075;-85
2024/01/27 07:16:48;;;;;;;4.75;1.50;;;2.00;99.90;;;1.68;100.00;103032.38;5266160;28;20044;-85
2024/01/27 07:19:20;;;;;;;2.15;1.08;;;2.00;99.90;;;1.64;100.00;103022.53;5250636;28;20581;-85
2024/01/27 07:21:53;;;;;;;2.35;0.82;;;2.00;99.90;;;1.72;100.00;103031.97;5246173;28;20047;-86
2024/01/27 07:24:25;;;;;;;1.92;1.38;;;2.00;99.90;;;1.72;100.00;103025.91;5248608;28;20058;-85
2024/01/27 07:26:58;;;;;;;2.63;2.15;;;2.00;99.90;;;1.72;100.00;103031.97;5228541;28;20055;-85
2024/01/27 07:29:31;;;;;;;0.75;0.75;;;2.10;99.90;;;1.71;100.00;103035.28;5250658;28;20068;-84
2024/01/27 07:32:04;;;;;;;1.20;0.90;;;2.00;99.90;;;1.67;100.00;103033.13;5242618;28;20109;-85
2024/01/27 07:34:36;;;;;;;5.25;1.38;;;2.00;99.90;;;1.63;100.00;103042.19;5232678;28;20107;-85
2024/01/27 07:37:09;;;;;;;8.40;2.33;;;2.00;99.90;;;1.60;100.00;103051.22;5254345;28;20052;-86
2024/01/27 07:39:41;;;;;;;9.65;2.05;;;1.90;99.90;;;1.59;100.00;103054.56;5245753;28;20045;-85
2024/01/27 07:42:13;;;;;;;10.50;4.15;;;2.00;99.90;;;1.55;100.00;103058.44;5239682;28;20052;-86
2024/01/27 07:44:47;;;;;;;8.35;2.78;;;1.90;99.90;;;1.56;100.00;103044.84;5239069;28;20053;-84
2024/01/27 07:47:19;;;;;;;10.27;3.47;;;1.90;99.90;;;1.55;100.00;103047.25;5240031;28;20060;-84
2024/01/27 07:49:52;;;;;;;5.25;2.28;;;1.90;99.90;;;1.56;100.00;103049.06;5232988;28;20048;-85
2024/01/27 07:52:24;;;;;;;8.77;3.42;;;1.90;99.90;;;1.59;100.00;103062.25;5227351;28;20053;-86
2024/01/27 07:54:57;;;;;;;5.55;2.90;;;1.90;99.90;;;1.59;100.00;103069.97;5221737;28;20098;-84
2024/01/27 07:57:30;;;;;;;9.25;2.13;;;1.90;99.90;;;1.59;100.00;103063.16;5240441;28;20047;-85
2024/01/27 08:00:06;;;;;;;2.63;1.63;;;1.90;99.90;;;1.59;100.00;103055.47;5226244;28;20045;-86
2024/01/27 08:02:38;;;;;;;4.88;1.85;;;2.00;99.90;;;1.63;100.00;103054.16;5247121;28;20064;-87
2024/01/27 08:07:10;;;;;;;3.70;1.77;;;1.90;99.90;;;1.64;100.00;103053.38;5327017;27;20411;-46
2024/01/27 08:09:42;;;;;;;9.07;1.77;;;2.00;99.90;;;1.66;100.00;103057.03;5286034;28;20118;-45
2024/01/27 08:12:15;;;;;;;4.10;2.13;;;2.00;99.90;;;1.68;100.00;103055.50;5137759;27;20479;-45
2024/01/27 08:14:47;;;;;;;2.65;2.22;;;2.00;99.90;;;1.72;100.00;103067.06;5258352;28;20122;-45
2024/01/27 08:17:20;;;;;;;2.53;1.88;;;2.00;99.90;;;1.77;100.00;103068.47;5264449;28;20097;-45
2024/01/27 08:19:52;;;;;;;3.88;2.15;;;2.10;99.90;;;1.85;100.00;103076.22;5283001;28;20039;-45
2024/01/27 08:22:29;;;;;;;4.15;2.63;;;2.10;99.90;;;1.96;100.00;103076.47;5264023;28;20051;-44
2024/01/27 08:25:02;;;;;;;1.98;1.33;;;2.20;99.90;;;2.03;100.00;103073.78;5264237;28;20398;-44
2024/01/27 08:27:34;;;;;;;6.10;2.47;;;2.30;99.90;;;2.10;100.00;103073.69;5252514;28;20048;-46
2024/01/27 08:30:08;;;;;;;2.65;1.75;;;2.30;99.90;;;2.20;100.00;103066.16;5260455;28;20060;-45
2024/01/27 08:32:44;;;;;;;9.27;2.53;;;2.50;99.90;;;2.36;100.00;103069.56;5260355;28;20044;-45
2024/01/27 08:35:16;;;;;;;;;;;2.60;99.90;;;2.47;100.00;103082.63;5264865;28;20047;-44
2024/01/27 08:37:50;;;;;;;7.45;2.05;;;2.70;99.90;;;2.53;100.00;103088.41;5275152;28;19943;-44
2024/01/27 08:40:22;;;;;;;1.15;1.10;;;2.80;99.90;;;2.62;100.00;103086.81;5258541;28;20479;-44
2024/01/27 08:42:55;;;;;;;5.45;1.95;;;2.90;99.90;;;2.69;100.00;103087.59;5259189;28;20062;-45
2024/01/27 08:45:27;;;;;;;4.32;2.10;;;3.00;99.90;;;2.76;100.00;103089.13;5264031;28;20035;-45
2024/01/27 08:48:00;;;;;;;13.43;6.32;;;3.00;99.90;;;2.81;100.00;103092.19;5281110;28;20058;-46
2024/01/27 08:50:32;;;;;;;6.50;2.75;;;3.10;99.90;;;2.84;100.00;103098.53;5258424;28;20047;-46
2024/01/27 08:53:06;;;;;;;2.67;2.22;;;3.20;99.90;;;2.88;100.00;103086.91;5267119;28;20126;-45
2024/01/27 08:55:39;;;;;;;3.17;2.67;;;3.20;99.90;;;2.92;100.00;103089.94;5264201;28;20521;-45
2024/01/27 08:58:11;;;;;;;1.42;1.40;;;3.20;99.90;;;2.99;100.00;103086.31;5266253;28;20064;-45
2024/01/27 09:00:43;;;;;;;2.30;1.95;;;3.30;99.90;;;3.02;100.00;103083.16;5265790;28;20051;-45
2024/01/27 09:03:16;;;;;;;12.65;2.83;;;3.30;99.90;;;3.07;100.00;103072.56;5263866;28;20047;-45
2024/01/27 09:05:48;;;;;;;7.80;3.85;;;3.30;99.90;;;3.11;100.00;103074.66;5265506;28;20128;-45
2024/01/27 09:08:22;;;;;;;12.65;4.57;;;3.40;99.90;;;3.16;100.00;103063.16;5260358;28;20048;-46
2024/01/27 09:10:54;;;;;;;13.77;4.35;;;3.50;99.90;;;3.24;100.00;103062.25;5258805;28;20082;-45
2024/01/27 09:13:27;;;;;;;7.03;1.70;;;3.60;99.90;;;3.34;100.00;103069.25;5256662;28;20058;-46
2024/01/27 09:16:00;;;;;;;8.85;2.63;;;3.60;99.90;;;3.45;100.00;103072.88;5273291;28;20054;-45
2024/01/27 09:18:33;;;;;;;2.40;1.55;;;3.70;99.90;;;3.62;100.00;103066.81;5267348;28;20044;-45
2024/01/27 09:21:05;;;;;;;5.63;2.65;;;3.80;99.90;;;3.79;100.00;103053.94;5250211;28;20048;-45
2024/01/27 09:23:39;;;;;;;5.30;1.92;;;3.90;99.90;;;4.08;100.00;103056.75;5250728;28;20509;-44
2024/01/27 09:26:12;;;;;;;11.20;2.97;;;4.20;99.90;;;4.29;100.00;103048.47;5258119;28;20048;-45
2024/01/27 09:28:45;;;;;;;6.57;2.80;;;4.40;99.90;;;4.55;100.00;103058.69;5248588;28;20138;-45
2024/01/27 09:31:18;;;;;;;6.18;3.58;;;4.60;99.90;;;4.72;100.00;103059.41;5247985;28;20449;-45
2024/01/27 09:33:52;;;;;;;10.30;3.88;;;4.80;99.90;;;4.85;100.00;103067.53;5249315;28;20127;-45
2024/01/27 09:36:24;;;;;;;10.63;2.92;;;4.90;99.90;;;4.97;100.00;103055.75;5252653;28;20056;-46
2024/01/27 09:38:59;;;;;;;10.82;2.53;;;5.10;99.90;;;5.14;100.00;103055.63;5249412;28;20055;-46
2024/01/27 09:41:33;;;;;;;8.60;1.88;;;5.20;99.90;;;5.32;100.00;103060.69;5249185;28;20051;-47
2024/01/27 09:44:06;;;;;;;5.45;1.55;;;5.40;99.90;;;5.51;100.00;103053.84;5248709;28;20422;-46
2024/01/27 09:46:42;;;;;;;3.70;1.80;;;5.50;99.90;;;5.75;100.00;103060.34;5248985;28;20094;-46
2024/01/27 09:49:15;;;;;;;2.40;1.80;;;5.70;99.90;;;5.95;100.00;103051.81;5249018;28;20050;-45
2024/01/27 09:51:48;;;;;;;8.43;1.55;;;5.90;99.90;;;6.11;100.00;103041.13;5246640;28;20048;-45
2024/01/27 09:54:22;;;;;;;5.13;2.20;;;6.10;99.90;;;6.24;100.00;103044.91;5248024;28;20513;-45
2024/01/27 09:56:57;;;;;;;3.33;1.73;;;6.20;99.90;;;6.34;100.00;103045.75;5250212;28;20525;-46
2024/01/27 09:59:30;;;;;;;3.63;2.03;;;6.30;99.90;;;6.45;100.00;103034.59;5233472;28;20147;-45
2024/01/27 10:02:05;;;;;;;6.32;2.72;;;6.40;99.90;;;6.57;100.00;103040.84;5246579;28;20056;-45
2024/01/27 10:04:37;;;;;;;10.23;2.47;;;6.50;99.90;;;6.68;100.00;103050.47;5245635;28;20155;-46
2024/01/27 10:07:10;;;;;;;2.63;1.30;;;6.70;99.90;;;6.78;100.00;103054.75;5234670;28;20047;-45
2024/01/27 10:09:44;;;;;;;5.65;1.88;;;6.70;99.90;;;6.91;100.00;103061.91;5254483;28;20522;-46
2024/01/27 10:12:17;;;;;;;2.97;1.73;;;6.80;99.90;;;7.05;100.00;103064.91;5269640;28;20048;-46
2024/01/27 10:14:51;;;;;;;3.53;1.58;;;7.00;99.90;;;7.15;100.00;103058.81;5248312;28;20126;-45
2024/01/27 10:17:26;;;;;;;3.00;2.05;;;7.10;99.90;;;7.24;100.00;103062.19;5250204;28;20090;-46
2024/01/27 10:20:03;;;;;;;9.68;1.88;;;7.20;99.90;;;7.33;100.00;103069.81;5254400;28;20532;-45
2024/01/27 10:22:39;;;;;;;12.40;1.50;;;7.20;99.90;;;7.43;100.00;103066.28;5246536;28;20391;-46
2024/01/27 10:25:16;;;;;;;3.58;1.85;;;7.30;99.90;;;7.56;100.00;103066.53;5251508;28;20055;-47
2024/01/27 10:27:49;;;;;;;4.40;2.70;;;7.40;99.90;;;7.58;100.00;103076.28;5244932;28;20053;-46
2024/01/27 10:30:21;;;;;;;5.80;2.42;;;7.50;99.90;;;7.60;100.00;103086.78;5259317;28;20139;-45
2024/01/27 10:32:57;;;;;;;2.85;1.45;;;7.60;99.90;;;7.68;100.00;103093.50;5242471;28;20066;-47
2024/01/27 10:35:30;;;;;;;4.88;2.45;;;7.60;99.90;;;7.79;100.00;103097.91;5250529;28;20113;-46
2024/01/27 10:38:03;;;;;;;18.45;2.10;;;7.70;99.90;;;7.90;100.00;103096.22;5246631;28;20589;-46
2024/01/27 10:40:37;;;;;;;5.65;1.92;;;7.80;99.90;;;8.03;100.00;103077.34;5262556;28;20040;-45
2024/01/27 10:43:10;;;;;;;3.03;1.50;;;7.90;99.90;;;8.28;100.00;103072.41;5246750;28;20052;-46